createdAt,value
2023-10-08T00:00:51.037Z,16.10
2023-10-08T00:03:21.682Z,16.10
2023-10-08T00:05:51.146Z,16.10
2023-10-08T00:08:24.967Z,16.00
2023-10-08T00:10:54.760Z,15.90
2023-10-08T00:13:23.703Z,15.90
2023-10-08T00:15:54.388Z,15.80
2023-10-08T00:18:23.847Z,15.70
2023-10-08T00:21:00.014Z,15.60
2023-10-08T00:23:29.795Z,15.60
2023-10-08T00:26:05.371Z,15.40
2023-10-08T00:28:33.926Z,15.40
2023-10-08T00:31:12.642Z,15.40
2023-10-08T00:33:41.592Z,15.40
2023-10-08T00:36:20.354Z,15.50
2023-10-08T00:38:51.722Z,15.50
2023-10-08T00:41:23.260Z,15.50
2023-10-08T00:43:54.976Z,15.50
2023-10-08T00:46:25.188Z,15.60
2023-10-08T00:48:57.606Z,15.60
2023-10-08T00:51:33.617Z,15.60
2023-10-08T00:54:07.837Z,15.60
2023-10-08T00:56:51.587Z,15.60
2023-10-08T00:59:22.634Z,15.60
2023-10-08T01:01:53.503Z,15.60
2023-10-08T01:04:24.922Z,15.50
2023-10-08T01:07:00.311Z,15.50
2023-10-08T01:09:33.264Z,15.40
2023-10-08T01:12:16.368Z,15.30
2023-10-08T01:14:46.312Z,15.30
2023-10-08T01:17:17.245Z,15.30
2023-10-08T01:19:47.099Z,15.40
2023-10-08T01:22:19.923Z,15.40
2023-10-08T01:24:50.497Z,15.40
2023-10-08T01:27:23.081Z,15.40
2023-10-08T01:29:53.431Z,15.40
2023-10-08T01:32:25.584Z,15.40
2023-10-08T01:34:54.172Z,15.30
2023-10-08T01:37:23.774Z,15.30
2023-10-08T01:39:52.237Z,15.30
2023-10-08T01:42:22.014Z,15.30
2023-10-08T01:44:51.953Z,15.20
2023-10-08T01:47:20.890Z,15.20
2023-10-08T01:49:50.104Z,15.10
2023-10-08T01:52:22.310Z,15.10
2023-10-08T01:54:55.169Z,15.10
2023-10-08T01:57:23.499Z,15.10
2023-10-08T01:59:55.374Z,15.10
2023-10-08T02:02:23.703Z,15.10
2023-10-08T02:04:51.981Z,15.10
2023-10-08T02:07:22.319Z,15.00
2023-10-08T02:09:52.123Z,15.00
2023-10-08T02:12:20.464Z,15.00
2023-10-08T02:14:50.205Z,15.00
2023-10-08T02:17:18.973Z,15.00
2023-10-08T02:19:47.293Z,15.10
2023-10-08T02:22:15.610Z,15.20
2023-10-08T02:24:44.535Z,15.10
2023-10-08T02:27:16.387Z,15.10
2023-10-08T02:29:45.056Z,15.20
2023-10-08T02:32:13.950Z,15.10
2023-10-08T02:34:43.228Z,15.10
2023-10-08T02:37:12.158Z,15.10
2023-10-08T02:39:41.965Z,15.10
2023-10-08T02:42:11.841Z,15.20
2023-10-08T02:44:43.295Z,15.10
2023-10-08T02:47:13.552Z,15.10
2023-10-08T02:49:42.892Z,15.00
2023-10-08T02:52:11.365Z,15.00
2023-10-08T02:54:39.545Z,14.90
2023-10-08T02:57:11.868Z,14.90
2023-10-08T02:59:42.243Z,14.90
2023-10-08T03:02:20.519Z,14.90
2023-10-08T03:04:52.821Z,14.90
2023-10-08T03:07:33.137Z,14.90
2023-10-08T03:10:07.331Z,14.90
2023-10-08T03:12:36.046Z,14.90
2023-10-08T03:15:15.366Z,14.90
2023-10-08T03:17:52.434Z,14.90
2023-10-08T03:20:31.205Z,14.80
2023-10-08T03:22:59.736Z,14.70
2023-10-08T03:25:29.351Z,14.70
2023-10-08T03:28:00.546Z,14.70
2023-10-08T03:30:32.329Z,14.60
2023-10-08T03:33:02.834Z,14.60
2023-10-08T03:35:38.124Z,14.60
2023-10-08T03:38:22.984Z,14.50
2023-10-08T03:40:55.796Z,14.50
2023-10-08T03:43:35.425Z,14.50
2023-10-08T03:46:06.948Z,14.50
2023-10-08T03:48:38.419Z,14.40
2023-10-08T03:51:13.064Z,14.40
2023-10-08T03:53:59.055Z,14.30
2023-10-08T03:56:30.978Z,14.30
2023-10-08T03:59:02.126Z,14.30
2023-10-08T04:01:33.901Z,14.30
2023-10-08T04:04:02.429Z,14.20
2023-10-08T04:06:32.330Z,14.20
2023-10-08T04:09:17.977Z,14.10
2023-10-08T04:12:04.960Z,14.10
2023-10-08T04:14:35.830Z,14.00
2023-10-08T04:17:05.562Z,13.90
2023-10-08T04:19:34.663Z,13.80
2023-10-08T04:22:04.810Z,13.80
2023-10-08T04:24:36.050Z,13.70
2023-10-08T04:27:07.277Z,13.60
2023-10-08T04:29:38.091Z,13.50
2023-10-08T04:32:14.000Z,13.50
2023-10-08T04:34:47.957Z,13.40
2023-10-08T04:37:21.537Z,13.40
2023-10-08T04:39:59.221Z,13.40
2023-10-08T04:42:28.126Z,13.30
2023-10-08T04:44:56.767Z,13.30
2023-10-08T04:47:37.198Z,13.30
2023-10-08T04:50:06.914Z,13.20
2023-10-08T04:52:47.035Z,13.20
2023-10-08T04:55:21.362Z,13.20
2023-10-08T04:57:51.528Z,13.20
2023-10-08T05:00:42.155Z,13.10
2023-10-08T05:03:16.445Z,13.00
2023-10-08T05:06:08.840Z,13.10
2023-10-08T05:08:48.827Z,13.00
2023-10-08T05:11:25.965Z,13.00
2023-10-08T05:14:03.919Z,13.00
2023-10-08T05:16:38.166Z,13.00
2023-10-08T05:19:27.370Z,13.00
2023-10-08T05:22:18.900Z,13.00
2023-10-08T05:25:08.624Z,13.00
2023-10-08T05:27:57.925Z,13.00
2023-10-08T05:30:30.295Z,13.00
2023-10-08T05:33:13.764Z,12.90
2023-10-08T05:35:58.291Z,12.90
2023-10-08T05:38:40.704Z,12.90
2023-10-08T05:41:29.117Z,12.80
2023-10-08T05:44:14.830Z,12.80
2023-10-08T05:47:06.017Z,12.80
2023-10-08T05:49:44.298Z,12.70
2023-10-08T05:52:26.741Z,12.70
2023-10-08T05:55:15.107Z,12.70
2023-10-08T05:57:53.499Z,12.70
2023-10-08T06:00:41.700Z,12.70
2023-10-08T06:03:23.227Z,12.70
2023-10-08T06:06:08.622Z,12.70
2023-10-08T06:08:50.632Z,12.70
2023-10-08T06:11:32.029Z,12.70
2023-10-08T06:14:01.891Z,12.70
2023-10-08T06:16:43.162Z,12.80
2023-10-08T06:19:11.899Z,12.80
2023-10-08T06:21:41.149Z,12.80
2023-10-08T06:24:12.073Z,12.90
2023-10-08T06:26:46.180Z,12.90
2023-10-08T06:29:28.922Z,12.90
2023-10-08T06:32:03.278Z,13.00
2023-10-08T06:34:32.708Z,12.90
2023-10-08T06:37:02.914Z,13.00
2023-10-08T06:39:48.749Z,13.10
2023-10-08T06:42:18.576Z,13.10
2023-10-08T06:44:49.936Z,13.20
2023-10-08T06:47:20.096Z,13.20
2023-10-08T06:49:48.711Z,13.40
2023-10-08T06:52:17.402Z,13.60
2023-10-08T06:54:48.162Z,13.60
2023-10-08T06:57:21.541Z,13.70
2023-10-08T06:59:51.730Z,13.80
2023-10-08T07:02:21.523Z,13.80
2023-10-08T07:04:52.512Z,13.90
2023-10-08T07:07:21.041Z,13.90
2023-10-08T07:09:52.922Z,13.90
2023-10-08T07:12:26.020Z,14.10
2023-10-08T07:14:55.488Z,14.30
2023-10-08T07:17:29.116Z,14.40
2023-10-08T07:19:58.951Z,14.40
2023-10-08T07:22:30.459Z,14.50
2023-10-08T07:25:00.499Z,14.50
2023-10-08T07:27:33.859Z,14.60
2023-10-08T07:30:04.988Z,14.70
2023-10-08T07:32:33.524Z,14.70
2023-10-08T07:35:17.616Z,14.80
2023-10-08T07:37:46.411Z,14.80
2023-10-08T07:40:16.930Z,15.00
2023-10-08T07:42:46.142Z,15.10
2023-10-08T07:45:18.878Z,15.10
2023-10-08T07:47:47.779Z,15.20
2023-10-08T07:50:17.220Z,15.20
2023-10-08T07:52:46.235Z,15.20
2023-10-08T07:55:19.258Z,15.30
2023-10-08T07:57:47.795Z,15.50
2023-10-08T08:00:27.291Z,15.60
2023-10-08T08:02:56.827Z,15.70
2023-10-08T08:05:26.574Z,15.70
2023-10-08T08:07:57.933Z,15.70
2023-10-08T08:10:27.884Z,15.90
2023-10-08T08:12:58.243Z,16.00
2023-10-08T08:15:29.939Z,16.30
2023-10-08T08:17:58.477Z,16.50
2023-10-08T08:20:36.490Z,16.60
2023-10-08T08:23:08.211Z,16.80
2023-10-08T08:25:56.606Z,16.90
2023-10-08T08:28:26.113Z,17.10
2023-10-08T08:30:56.429Z,17.30
2023-10-08T08:33:25.207Z,17.40
2023-10-08T08:36:05.022Z,17.40
2023-10-08T08:38:34.240Z,17.50
2023-10-08T08:41:08.639Z,17.60
2023-10-08T08:43:37.601Z,17.80
2023-10-08T08:46:08.425Z,17.90
2023-10-08T08:48:40.128Z,18.20
2023-10-08T08:51:10.465Z,18.40
2023-10-08T08:53:39.010Z,18.50
2023-10-08T08:56:11.627Z,18.40
2023-10-08T08:58:42.365Z,18.50
2023-10-08T09:01:15.268Z,18.50
2023-10-08T09:03:44.112Z,18.70
2023-10-08T09:06:12.893Z,18.80
2023-10-08T09:08:43.902Z,18.80
2023-10-08T09:11:17.368Z,18.90
2023-10-08T09:13:46.185Z,19.10
2023-10-08T09:16:16.265Z,19.10
2023-10-08T09:18:46.933Z,19.20
2023-10-08T09:21:20.715Z,19.30
2023-10-08T09:23:53.045Z,19.20
2023-10-08T09:26:26.511Z,19.20
2023-10-08T09:28:55.769Z,19.00
2023-10-08T09:31:26.446Z,19.10
2023-10-08T09:33:57.517Z,19.00
2023-10-08T09:36:33.025Z,19.10
2023-10-08T09:39:05.793Z,19.10
2023-10-08T09:41:37.924Z,19.30
2023-10-08T09:44:12.928Z,19.30
2023-10-08T09:46:44.427Z,19.50
2023-10-08T09:49:14.343Z,19.70
2023-10-08T09:51:42.916Z,19.70
2023-10-08T09:54:17.901Z,19.70
2023-10-08T09:56:47.997Z,19.80
2023-10-08T09:59:21.742Z,19.90
2023-10-08T10:01:51.258Z,19.90
2023-10-08T10:04:26.933Z,20.00
2023-10-08T10:06:55.665Z,20.10
2023-10-08T10:09:25.915Z,20.20
2023-10-08T10:11:58.409Z,20.30
2023-10-08T10:14:28.091Z,20.50
2023-10-08T10:17:27.825Z,20.60
2023-10-08T10:20:07.263Z,20.60
2023-10-08T10:22:37.320Z,20.50
2023-10-08T10:25:16.171Z,20.70
2023-10-08T10:28:24.451Z,20.70
2023-10-08T10:30:53.787Z,20.90
2023-10-08T10:33:22.460Z,20.90
2023-10-08T10:35:54.615Z,21.10
2023-10-08T10:38:27.578Z,21.30
2023-10-08T10:40:59.271Z,21.50
2023-10-08T10:43:33.743Z,21.60
2023-10-08T10:46:25.893Z,21.50
2023-10-08T10:49:06.424Z,21.50
2023-10-08T10:51:36.318Z,21.50
2023-10-08T10:54:11.415Z,21.50
2023-10-08T10:56:44.353Z,21.70
2023-10-08T10:59:21.088Z,21.80
2023-10-08T11:01:53.878Z,21.90
2023-10-08T11:04:30.134Z,22.00
2023-10-08T11:07:02.225Z,22.10
2023-10-08T11:09:39.633Z,22.00
2023-10-08T11:12:12.882Z,22.10
2023-10-08T11:14:44.294Z,22.10
2023-10-08T11:17:16.717Z,22.20
2023-10-08T11:19:47.468Z,22.20
2023-10-08T11:22:20.102Z,22.30
2023-10-08T11:24:49.925Z,22.50
2023-10-08T11:27:30.292Z,22.50
2023-10-08T11:30:01.648Z,22.70
2023-10-08T11:32:34.293Z,22.60
2023-10-08T11:35:16.986Z,22.60
2023-10-08T11:37:52.721Z,22.60
2023-10-08T11:40:29.961Z,22.60
2023-10-08T11:42:59.956Z,22.70
2023-10-08T11:45:39.386Z,22.70
2023-10-08T11:48:13.795Z,22.70
2023-10-08T11:50:42.441Z,22.70
2023-10-08T11:53:12.740Z,22.70
2023-10-08T11:55:42.121Z,22.80
2023-10-08T11:58:12.256Z,22.90
2023-10-08T12:00:47.033Z,22.80
2023-10-08T12:03:19.973Z,22.90
2023-10-08T12:05:50.845Z,22.90
2023-10-08T12:08:22.165Z,23.00
2023-10-08T12:10:56.062Z,23.10
2023-10-08T12:13:26.628Z,23.20
2023-10-08T12:16:07.230Z,23.20
2023-10-08T12:18:41.464Z,23.20
2023-10-08T12:21:12.045Z,23.20
2023-10-08T12:23:42.296Z,23.20
2023-10-08T12:26:10.778Z,23.10
2023-10-08T12:28:39.015Z,23.10
2023-10-08T12:31:11.717Z,23.20
2023-10-08T12:33:41.391Z,23.30
2023-10-08T12:36:13.326Z,23.30
2023-10-08T12:38:44.222Z,23.50
2023-10-08T12:41:16.053Z,23.60
2023-10-08T12:43:46.824Z,23.70
2023-10-08T12:46:20.502Z,23.80
2023-10-08T12:48:53.961Z,23.80
2023-10-08T12:51:25.525Z,23.90
2023-10-08T12:54:00.314Z,23.90
2023-10-08T12:56:41.166Z,23.90
2023-10-08T12:59:09.580Z,24.10
2023-10-08T13:01:42.809Z,24.20
2023-10-08T13:04:17.458Z,24.30
2023-10-08T13:06:47.605Z,24.30
2023-10-08T13:09:15.945Z,24.30
2023-10-08T13:11:44.823Z,24.20
2023-10-08T13:14:14.374Z,24.20
2023-10-08T13:16:46.342Z,24.30
2023-10-08T13:19:17.072Z,24.20
2023-10-08T13:21:45.533Z,24.20
2023-10-08T13:24:14.421Z,24.20
2023-10-08T13:26:49.291Z,24.20
2023-10-08T13:29:19.637Z,24.20
2023-10-08T13:31:49.914Z,24.20
2023-10-08T13:34:18.472Z,24.30
2023-10-08T13:36:48.774Z,24.40
2023-10-08T13:39:20.714Z,24.40
2023-10-08T13:41:53.227Z,24.50
2023-10-08T13:44:31.056Z,24.50
2023-10-08T13:47:01.845Z,24.50
2023-10-08T13:49:30.915Z,24.60
2023-10-08T13:51:59.545Z,24.60
2023-10-08T13:54:30.805Z,24.60
2023-10-08T13:57:00.478Z,24.70
2023-10-08T13:59:33.524Z,24.80
2023-10-08T14:02:15.282Z,24.90
2023-10-08T14:04:45.910Z,25.00
2023-10-08T14:07:17.967Z,25.00
2023-10-08T14:09:47.817Z,25.00
2023-10-08T14:12:16.397Z,25.20
2023-10-08T14:14:46.978Z,25.20
2023-10-08T14:17:17.230Z,25.20
2023-10-08T14:19:53.201Z,25.40
2023-10-08T14:22:24.080Z,25.50
2023-10-08T14:25:00.588Z,25.70
2023-10-08T14:27:33.524Z,25.50
2023-10-08T14:30:05.859Z,25.50
2023-10-08T14:32:36.572Z,25.50
2023-10-08T14:35:25.070Z,25.60
2023-10-08T14:38:11.179Z,25.70
2023-10-08T14:40:56.834Z,25.80
2023-10-08T14:43:25.849Z,25.90
2023-10-08T14:45:54.706Z,26.00
2023-10-08T14:48:25.044Z,26.10
2023-10-08T14:50:53.965Z,26.10
2023-10-08T14:53:22.716Z,26.10
2023-10-08T14:55:51.540Z,26.20
2023-10-08T14:58:19.948Z,26.20
2023-10-08T15:00:48.201Z,26.30
2023-10-08T15:03:16.646Z,26.30
2023-10-08T15:05:46.450Z,26.20
2023-10-08T15:08:15.856Z,26.30
2023-10-08T15:10:44.429Z,26.20
2023-10-08T15:13:13.010Z,26.00
2023-10-08T15:15:41.688Z,26.10
2023-10-08T15:18:13.016Z,26.00
2023-10-08T15:20:42.687Z,25.90
2023-10-08T15:23:13.955Z,25.90
2023-10-08T15:25:43.368Z,25.90
2023-10-08T15:28:11.780Z,25.80
2023-10-08T15:30:41.204Z,25.80
2023-10-08T15:33:09.981Z,25.70
2023-10-08T15:35:38.753Z,25.70
2023-10-08T15:38:07.163Z,25.70
2023-10-08T15:40:37.370Z,25.60
2023-10-08T15:43:07.762Z,25.50
2023-10-08T15:45:38.199Z,25.40
2023-10-08T15:48:09.528Z,25.30
2023-10-08T15:50:38.204Z,25.20
2023-10-08T15:53:06.956Z,25.10
2023-10-08T15:55:36.790Z,25.10
2023-10-08T15:58:05.495Z,24.90
2023-10-08T16:00:34.299Z,24.90
2023-10-08T16:03:02.973Z,24.90
2023-10-08T16:05:32.536Z,24.80
2023-10-08T16:08:00.776Z,24.70
2023-10-08T16:10:29.894Z,24.60
2023-10-08T16:12:59.533Z,24.50
2023-10-08T16:15:27.816Z,24.40
2023-10-08T16:17:58.102Z,24.30
2023-10-08T16:20:27.552Z,24.20
2023-10-08T16:22:55.782Z,24.10
2023-10-08T16:25:24.343Z,23.90
2023-10-08T16:27:55.442Z,23.80
2023-10-08T16:30:29.160Z,23.70
2023-10-08T16:32:58.889Z,23.60
2023-10-08T16:35:28.588Z,23.50
2023-10-08T16:37:57.552Z,23.40
2023-10-08T16:40:26.067Z,23.30
2023-10-08T16:42:54.329Z,23.10
2023-10-08T16:45:24.747Z,22.90
2023-10-08T16:47:53.781Z,22.70
2023-10-08T16:50:22.265Z,22.60
2023-10-08T16:52:50.565Z,22.40
2023-10-08T16:55:19.030Z,22.30
2023-10-08T16:57:47.247Z,22.20
2023-10-08T17:00:18.101Z,22.10
2023-10-08T17:02:47.999Z,21.90
2023-10-08T17:05:16.774Z,21.70
2023-10-08T17:07:46.752Z,21.60
2023-10-08T17:10:15.739Z,21.40
2023-10-08T17:12:44.139Z,21.30
2023-10-08T17:15:14.980Z,21.20
2023-10-08T17:17:43.834Z,21.10
2023-10-08T17:20:18.443Z,21.00
2023-10-08T17:22:47.202Z,20.90
2023-10-08T17:25:15.881Z,20.70
2023-10-08T17:27:48.080Z,20.60
2023-10-08T17:30:21.456Z,20.40
2023-10-08T17:32:51.050Z,20.30
2023-10-08T17:35:20.907Z,20.10
2023-10-08T17:37:49.281Z,20.00
2023-10-08T17:40:17.592Z,19.90
2023-10-08T17:42:47.888Z,19.80
2023-10-08T17:45:16.921Z,19.70
2023-10-08T17:47:47.280Z,19.60
2023-10-08T17:50:17.130Z,19.50
2023-10-08T17:52:50.201Z,19.50
2023-10-08T17:55:19.138Z,19.40
2023-10-08T17:57:48.199Z,19.30
2023-10-08T18:00:19.572Z,19.10
2023-10-08T18:02:50.552Z,19.00
2023-10-08T18:05:21.261Z,18.90
2023-10-08T18:07:51.860Z,18.80
2023-10-08T18:10:21.796Z,18.70
2023-10-08T18:12:51.987Z,18.60
2023-10-08T18:15:24.077Z,18.60
2023-10-08T18:17:54.665Z,18.50
2023-10-08T18:20:34.010Z,18.50
2023-10-08T18:23:04.296Z,18.40
2023-10-08T18:25:32.954Z,18.30
2023-10-08T18:28:02.595Z,18.20
2023-10-08T18:30:32.106Z,18.10
2023-10-08T18:33:00.699Z,18.10
2023-10-08T18:35:31.235Z,18.00
2023-10-08T18:38:01.578Z,18.00
2023-10-08T18:40:33.624Z,17.90
2023-10-08T18:43:02.078Z,17.90
2023-10-08T18:45:30.780Z,17.80
2023-10-08T18:47:59.714Z,17.80
2023-10-08T18:50:28.196Z,17.70
2023-10-08T18:52:56.952Z,17.70
2023-10-08T18:55:32.975Z,17.60
2023-10-08T18:58:09.538Z,17.60
2023-10-08T19:00:39.662Z,17.60
2023-10-08T19:03:10.076Z,17.50
2023-10-08T19:05:39.122Z,17.50
2023-10-08T19:08:07.494Z,17.50
2023-10-08T19:10:35.802Z,17.50
2023-10-08T19:13:05.926Z,17.50
2023-10-08T19:15:36.569Z,17.50
2023-10-08T19:18:06.771Z,17.60
2023-10-08T19:20:39.027Z,17.60
2023-10-08T19:23:09.294Z,17.60
2023-10-08T19:25:39.091Z,17.50
2023-10-08T19:28:09.280Z,17.50
2023-10-08T19:30:41.492Z,17.40
2023-10-08T19:33:11.925Z,17.40
2023-10-08T19:35:40.489Z,17.30
2023-10-08T19:38:09.148Z,17.30
2023-10-08T19:40:38.917Z,17.30
2023-10-08T19:43:10.197Z,17.20
2023-10-08T19:45:42.781Z,17.20
2023-10-08T19:48:13.117Z,17.10
2023-10-08T19:50:43.228Z,17.00
2023-10-08T19:53:12.428Z,16.90
2023-10-08T19:55:47.554Z,16.80
2023-10-08T19:58:17.835Z,16.80
2023-10-08T20:00:48.000Z,16.70
2023-10-08T20:03:16.747Z,16.60
2023-10-08T20:05:45.749Z,16.60
2023-10-08T20:08:14.100Z,16.50
2023-10-08T20:10:44.996Z,16.40
2023-10-08T20:13:16.416Z,16.40
2023-10-08T20:15:46.063Z,16.30
2023-10-08T20:18:17.157Z,16.30
2023-10-08T20:20:45.810Z,16.30
2023-10-08T20:23:15.285Z,16.30
2023-10-08T20:25:43.774Z,16.30
2023-10-08T20:28:13.332Z,16.30
2023-10-08T20:30:45.130Z,16.30
2023-10-08T20:33:16.006Z,16.20
2023-10-08T20:35:45.765Z,16.20
2023-10-08T20:38:15.067Z,16.20
2023-10-08T20:40:45.122Z,16.10
2023-10-08T20:43:13.456Z,16.20
2023-10-08T20:45:43.242Z,16.20
2023-10-08T20:48:15.413Z,16.20
2023-10-08T20:50:46.334Z,16.20
2023-10-08T20:53:17.611Z,16.20
2023-10-08T20:55:46.948Z,16.30
2023-10-08T20:58:19.320Z,16.30
2023-10-08T21:00:48.291Z,16.30
2023-10-08T21:03:17.910Z,16.20
2023-10-08T21:05:48.667Z,16.20
2023-10-08T21:08:17.551Z,16.10
2023-10-08T21:11:00.738Z,16.10
2023-10-08T21:13:32.368Z,16.10
2023-10-08T21:16:03.111Z,15.90
2023-10-08T21:18:32.872Z,15.80
2023-10-08T21:21:05.465Z,15.80
2023-10-08T21:23:35.001Z,15.70
2023-10-08T21:26:03.354Z,15.70
2023-10-08T21:28:31.688Z,15.60
2023-10-08T21:31:07.897Z,15.50
2023-10-08T21:33:37.550Z,15.50
2023-10-08T21:36:07.634Z,15.40
2023-10-08T21:38:35.901Z,15.40
2023-10-08T21:41:05.157Z,15.30
2023-10-08T21:43:34.509Z,15.30
2023-10-08T21:46:02.894Z,15.30
2023-10-08T21:48:31.615Z,15.40
2023-10-08T21:51:00.035Z,15.30
2023-10-08T21:53:29.843Z,15.30
2023-10-08T21:55:58.276Z,15.20
2023-10-08T21:58:26.792Z,15.20
2023-10-08T22:01:10.550Z,15.10
2023-10-08T22:03:42.152Z,15.10
2023-10-08T22:06:10.773Z,15.10
2023-10-08T22:08:40.676Z,15.10
2023-10-08T22:11:09.064Z,15.10
2023-10-08T22:13:38.729Z,15.20
2023-10-08T22:16:18.747Z,15.30
2023-10-08T22:18:52.354Z,15.30
2023-10-08T22:21:23.961Z,15.40
2023-10-08T22:23:54.580Z,15.50
2023-10-08T22:26:25.693Z,15.60
2023-10-08T22:28:58.183Z,15.80
2023-10-08T22:31:27.054Z,15.90
2023-10-08T22:34:05.505Z,16.00
2023-10-08T22:36:42.987Z,16.00
2023-10-08T22:39:13.267Z,16.00
2023-10-08T22:41:46.470Z,16.00
2023-10-08T22:44:15.623Z,16.00
2023-10-08T22:46:45.825Z,16.10
2023-10-08T22:49:21.835Z,16.10
2023-10-08T22:51:52.110Z,16.10
2023-10-08T22:54:21.771Z,16.10
2023-10-08T22:56:51.178Z,16.10
2023-10-08T22:59:19.702Z,16.10
2023-10-08T23:01:49.132Z,16.10
2023-10-08T23:04:18.528Z,16.10
2023-10-08T23:06:48.216Z,16.10
2023-10-08T23:09:17.196Z,16.10
2023-10-08T23:11:48.970Z,16.00
2023-10-08T23:14:19.790Z,15.90
2023-10-08T23:16:51.265Z,15.90
2023-10-08T23:19:22.322Z,15.80
2023-10-08T23:21:53.436Z,15.80
2023-10-08T23:24:23.395Z,15.80
2023-10-08T23:26:53.927Z,15.80
2023-10-08T23:29:22.300Z,15.80
2023-10-08T23:31:50.585Z,15.80
2023-10-08T23:34:19.283Z,15.80
2023-10-08T23:36:53.177Z,15.80
2023-10-08T23:39:27.470Z,15.80
2023-10-08T23:42:02.824Z,15.80
2023-10-08T23:44:35.342Z,15.80
2023-10-08T23:47:10.933Z,15.90
2023-10-08T23:49:55.185Z,15.90
2023-10-08T23:52:25.393Z,16.00
2023-10-08T23:54:59.333Z,15.90
2023-10-08T23:57:47.405Z,16.00
